sensor_id;sensor_type;location;lat;lon;timestamp;P1;durP1;ratioP1;P2;durP2;ratioP2
50968;SDS011;36982;51.474;7.228;2023-08-31T00:02:12;13.17;;;3.40;;
50968;SDS011;36982;51.474;7.228;2023-08-31T00:04:38;6.83;;;3.83;;
50968;SDS011;36982;51.474;7.228;2023-08-31T00:07:04;9.13;;;3.47;;
50968;SDS011;36982;51.474;7.228;2023-08-31T00:09:30;7.30;;;3.63;;
50968;SDS011;36982;51.474;7.228;2023-08-31T00:11:56;5.13;;;2.77;;
50968;SDS011;36982;51.474;7.228;2023-08-31T00:14:22;5.53;;;2.80;;
50968;SDS011;36982;51.474;7.228;2023-08-31T00:16:48;9.77;;;5.07;;
50968;SDS011;36982;51.474;7.228;2023-08-31T00:19:15;6.53;;;2.60;;
50968;SDS011;36982;51.474;7.228;2023-08-31T00:21:41;7.70;;;2.90;;
50968;SDS011;36982;51.474;7.228;2023-08-31T00:24:07;7.63;;;3.93;;
50968;SDS011;36982;51.474;7.228;2023-08-31T00:26:33;9.30;;;3.70;;
50968;SDS011;36982;51.474;7.228;2023-08-31T00:28:58;4.60;;;3.20;;
50968;SDS011;36982;51.474;7.228;2023-08-31T00:31:24;25.43;;;11.93;;
50968;SDS011;36982;51.474;7.228;2023-08-31T00:33:50;12.77;;;7.77;;
50968;SDS011;36982;51.474;7.228;2023-08-31T00:36:16;3.73;;;2.50;;
50968;SDS011;36982;51.474;7.228;2023-08-31T00:38:43;11.97;;;3.03;;
50968;SDS011;36982;51.474;7.228;2023-08-31T00:41:09;7.90;;;3.47;;
50968;SDS011;36982;51.474;7.228;2023-08-31T00:43:35;5.23;;;3.00;;
50968;SDS011;36982;51.474;7.228;2023-08-31T00:46:01;7.47;;;3.43;;
50968;SDS011;36982;51.474;7.228;2023-08-31T00:48:27;4.97;;;2.80;;
50968;SDS011;36982;51.474;7.228;2023-08-31T00:50:53;4.97;;;2.43;;
50968;SDS011;36982;51.474;7.228;2023-08-31T00:53:19;5.43;;;2.70;;
50968;SDS011;36982;51.474;7.228;2023-08-31T00:55:45;5.90;;;2.57;;
50968;SDS011;36982;51.474;7.228;2023-08-31T00:58:11;5.10;;;3.03;;
50968;SDS011;36982;51.474;7.228;2023-08-31T01:03:43;6.83;;;2.80;;
50968;SDS011;36982;51.474;7.228;2023-08-31T01:06:31;3.57;;;2.57;;
50968;SDS011;36982;51.474;7.228;2023-08-31T01:09:28;7.73;;;2.70;;
50968;SDS011;36982;51.474;7.228;2023-08-31T01:14:54;5.10;;;2.87;;
50968;SDS011;36982;51.474;7.228;2023-08-31T01:17:24;6.60;;;2.83;;
50968;SDS011;36982;51.474;7.228;2023-08-31T01:19:53;8.03;;;3.27;;
50968;SDS011;36982;51.474;7.228;2023-08-31T01:24:55;6.07;;;2.90;;
50968;SDS011;36982;51.474;7.228;2023-08-31T01:27:22;4.77;;;3.10;;
50968;SDS011;36982;51.474;7.228;2023-08-31T01:29:48;6.70;;;3.20;;
50968;SDS011;36982;51.474;7.228;2023-08-31T01:32:14;6.27;;;2.90;;
50968;SDS011;36982;51.474;7.228;2023-08-31T01:34:40;7.17;;;2.87;;
50968;SDS011;36982;51.474;7.228;2023-08-31T01:37:08;7.80;;;3.23;;
50968;SDS011;36982;51.474;7.228;2023-08-31T01:39:46;4.93;;;3.20;;
50968;SDS011;36982;51.474;7.228;2023-08-31T01:42:43;8.90;;;3.47;;
50968;SDS011;36982;51.474;7.228;2023-08-31T01:45:10;4.63;;;3.00;;
50968;SDS011;36982;51.474;7.228;2023-08-31T01:47:38;6.97;;;3.10;;
50968;SDS011;36982;51.474;7.228;2023-08-31T01:50:04;5.23;;;3.13;;
50968;SDS011;36982;51.474;7.228;2023-08-31T01:52:30;4.13;;;2.87;;
50968;SDS011;36982;51.474;7.228;2023-08-31T01:54:56;3.50;;;2.80;;
50968;SDS011;36982;51.474;7.228;2023-08-31T01:57:21;5.10;;;3.00;;
50968;SDS011;36982;51.474;7.228;2023-08-31T01:59:47;4.60;;;3.13;;
50968;SDS011;36982;51.474;7.228;2023-08-31T02:02:12;6.07;;;3.43;;
50968;SDS011;36982;51.474;7.228;2023-08-31T02:04:39;5.33;;;3.07;;
50968;SDS011;36982;51.474;7.228;2023-08-31T02:07:05;8.13;;;3.17;;
50968;SDS011;36982;51.474;7.228;2023-08-31T02:09:30;6.40;;;3.20;;
50968;SDS011;36982;51.474;7.228;2023-08-31T02:11:56;6.27;;;3.30;;
50968;SDS011;36982;51.474;7.228;2023-08-31T02:14:21;5.67;;;3.07;;
50968;SDS011;36982;51.474;7.228;2023-08-31T02:16:48;4.73;;;3.50;;
50968;SDS011;36982;51.474;7.228;2023-08-31T02:19:13;7.93;;;3.40;;
50968;SDS011;36982;51.474;7.228;2023-08-31T02:21:39;6.93;;;3.30;;
50968;SDS011;36982;51.474;7.228;2023-08-31T02:24:05;8.50;;;3.20;;
50968;SDS011;36982;51.474;7.228;2023-08-31T02:26:31;4.83;;;3.10;;
50968;SDS011;36982;51.474;7.228;2023-08-31T02:28:56;5.40;;;3.20;;
50968;SDS011;36982;51.474;7.228;2023-08-31T02:31:22;5.40;;;2.90;;
50968;SDS011;36982;51.474;7.228;2023-08-31T02:33:48;6.13;;;3.20;;
50968;SDS011;36982;51.474;7.228;2023-08-31T02:36:14;5.47;;;3.13;;
50968;SDS011;36982;51.474;7.228;2023-08-31T02:38:40;7.67;;;3.60;;
50968;SDS011;36982;51.474;7.228;2023-08-31T02:41:05;5.30;;;3.33;;
50968;SDS011;36982;51.474;7.228;2023-08-31T02:43:31;6.60;;;3.10;;
50968;SDS011;36982;51.474;7.228;2023-08-31T02:46:00;4.93;;;3.40;;
50968;SDS011;36982;51.474;7.228;2023-08-31T02:48:27;6.60;;;3.20;;
50968;SDS011;36982;51.474;7.228;2023-08-31T02:50:59;7.13;;;3.57;;
50968;SDS011;36982;51.474;7.228;2023-08-31T02:53:29;4.90;;;3.53;;
50968;SDS011;36982;51.474;7.228;2023-08-31T02:55:55;5.20;;;3.37;;
50968;SDS011;36982;51.474;7.228;2023-08-31T02:58:21;5.67;;;3.80;;
50968;SDS011;36982;51.474;7.228;2023-08-31T03:00:47;9.03;;;4.27;;
50968;SDS011;36982;51.474;7.228;2023-08-31T03:03:14;8.17;;;3.83;;
50968;SDS011;36982;51.474;7.228;2023-08-31T03:05:41;5.77;;;3.67;;
50968;SDS011;36982;51.474;7.228;2023-08-31T03:08:06;6.40;;;3.67;;
50968;SDS011;36982;51.474;7.228;2023-08-31T03:10:32;4.97;;;3.43;;
50968;SDS011;36982;51.474;7.228;2023-08-31T03:12:58;5.47;;;3.57;;
50968;SDS011;36982;51.474;7.228;2023-08-31T03:15:23;7.43;;;3.63;;
50968;SDS011;36982;51.474;7.228;2023-08-31T03:17:49;5.03;;;4.03;;
50968;SDS011;36982;51.474;7.228;2023-08-31T03:20:14;6.80;;;4.10;;
50968;SDS011;36982;51.474;7.228;2023-08-31T03:22:40;4.37;;;3.43;;
50968;SDS011;36982;51.474;7.228;2023-08-31T03:25:06;6.83;;;3.83;;
50968;SDS011;36982;51.474;7.228;2023-08-31T03:27:32;7.43;;;4.50;;
50968;SDS011;36982;51.474;7.228;2023-08-31T03:29:57;6.67;;;3.93;;
50968;SDS011;36982;51.474;7.228;2023-08-31T03:32:23;8.60;;;3.97;;
50968;SDS011;36982;51.474;7.228;2023-08-31T03:34:48;6.80;;;4.47;;
50968;SDS011;36982;51.474;7.228;2023-08-31T03:37:14;10.43;;;4.73;;
50968;SDS011;36982;51.474;7.228;2023-08-31T03:39:40;8.93;;;5.53;;
50968;SDS011;36982;51.474;7.228;2023-08-31T03:42:09;6.97;;;4.63;;
50968;SDS011;36982;51.474;7.228;2023-08-31T03:44:35;11.10;;;6.10;;
50968;SDS011;36982;51.474;7.228;2023-08-31T03:47:02;8.40;;;5.20;;
50968;SDS011;36982;51.474;7.228;2023-08-31T03:49:28;9.13;;;5.70;;
50968;SDS011;36982;51.474;7.228;2023-08-31T03:51:53;12.77;;;6.50;;
50968;SDS011;36982;51.474;7.228;2023-08-31T03:54:19;7.20;;;5.80;;
50968;SDS011;36982;51.474;7.228;2023-08-31T03:56:45;8.50;;;6.20;;
50968;SDS011;36982;51.474;7.228;2023-08-31T03:59:12;7.10;;;5.27;;
50968;SDS011;36982;51.474;7.228;2023-08-31T04:01:37;7.47;;;5.63;;
50968;SDS011;36982;51.474;7.228;2023-08-31T04:04:03;8.47;;;6.43;;
50968;SDS011;36982;51.474;7.228;2023-08-31T04:06:30;11.23;;;7.07;;
50968;SDS011;36982;51.474;7.228;2023-08-31T04:08:55;9.80;;;7.43;;
50968;SDS011;36982;51.474;7.228;2023-08-31T04:11:21;12.30;;;7.67;;
50968;SDS011;36982;51.474;7.228;2023-08-31T04:13:47;11.40;;;8.53;;
50968;SDS011;36982;51.474;7.228;2023-08-31T04:16:13;13.30;;;9.47;;
50968;SDS011;36982;51.474;7.228;2023-08-31T04:18:38;17.03;;;10.07;;
50968;SDS011;36982;51.474;7.228;2023-08-31T04:21:04;15.23;;;9.13;;
50968;SDS011;36982;51.474;7.228;2023-08-31T04:23:30;14.50;;;10.17;;
50968;SDS011;36982;51.474;7.228;2023-08-31T04:25:56;13.57;;;9.87;;
50968;SDS011;36982;51.474;7.228;2023-08-31T04:28:23;15.07;;;10.00;;
50968;SDS011;36982;51.474;7.228;2023-08-31T04:30:49;21.87;;;13.10;;
50968;SDS011;36982;51.474;7.228;2023-08-31T04:33:14;14.83;;;10.33;;
50968;SDS011;36982;51.474;7.228;2023-08-31T04:35:41;14.43;;;10.20;;
50968;SDS011;36982;51.474;7.228;2023-08-31T04:38:06;15.30;;;9.67;;
50968;SDS011;36982;51.474;7.228;2023-08-31T04:40:32;15.80;;;9.87;;
50968;SDS011;36982;51.474;7.228;2023-08-31T04:42:58;15.00;;;10.50;;
50968;SDS011;36982;51.474;7.228;2023-08-31T04:45:23;15.90;;;10.10;;
50968;SDS011;36982;51.474;7.228;2023-08-31T04:47:49;17.60;;;10.30;;
50968;SDS011;36982;51.474;7.228;2023-08-31T04:50:16;14.20;;;9.70;;
50968;SDS011;36982;51.474;7.228;2023-08-31T04:52:42;12.00;;;9.07;;
50968;SDS011;36982;51.474;7.228;2023-08-31T04:55:07;12.40;;;9.57;;
50968;SDS011;36982;51.474;7.228;2023-08-31T04:57:33;14.60;;;9.90;;
50968;SDS011;36982;51.474;7.228;2023-08-31T04:59:59;17.70;;;11.40;;
50968;SDS011;36982;51.474;7.228;2023-08-31T05:02:24;13.00;;;9.07;;
50968;SDS011;36982;51.474;7.228;2023-08-31T05:04:50;13.20;;;9.43;;
50968;SDS011;36982;51.474;7.228;2023-08-31T05:07:16;15.60;;;10.20;;
50968;SDS011;36982;51.474;7.228;2023-08-31T05:09:42;12.77;;;9.10;;
50968;SDS011;36982;51.474;7.228;2023-08-31T05:12:07;15.30;;;10.97;;
50968;SDS011;36982;51.474;7.228;2023-08-31T05:14:33;16.80;;;11.50;;
50968;SDS011;36982;51.474;7.228;2023-08-31T05:17:03;14.27;;;9.70;;
50968;SDS011;36982;51.474;7.228;2023-08-31T05:19:29;16.27;;;11.27;;
50968;SDS011;36982;51.474;7.228;2023-08-31T05:21:56;16.80;;;10.30;;
50968;SDS011;36982;51.474;7.228;2023-08-31T05:24:21;18.03;;;11.70;;
50968;SDS011;36982;51.474;7.228;2023-08-31T05:26:47;18.17;;;10.73;;
50968;SDS011;36982;51.474;7.228;2023-08-31T05:29:14;18.47;;;10.97;;
50968;SDS011;36982;51.474;7.228;2023-08-31T05:31:39;14.20;;;10.43;;
50968;SDS011;36982;51.474;7.228;2023-08-31T05:34:05;18.50;;;11.13;;
50968;SDS011;36982;51.474;7.228;2023-08-31T05:36:30;16.27;;;11.07;;
50968;SDS011;36982;51.474;7.228;2023-08-31T05:38:56;17.27;;;11.67;;
50968;SDS011;36982;51.474;7.228;2023-08-31T05:41:22;14.80;;;10.40;;
50968;SDS011;36982;51.474;7.228;2023-08-31T05:43:47;16.67;;;11.53;;
50968;SDS011;36982;51.474;7.228;2023-08-31T05:46:13;15.10;;;11.03;;
50968;SDS011;36982;51.474;7.228;2023-08-31T05:48:39;20.77;;;11.00;;
50968;SDS011;36982;51.474;7.228;2023-08-31T05:51:04;13.57;;;10.53;;
50968;SDS011;36982;51.474;7.228;2023-08-31T05:53:30;14.17;;;10.10;;
50968;SDS011;36982;51.474;7.228;2023-08-31T05:55:56;14.13;;;11.07;;
50968;SDS011;36982;51.474;7.228;2023-08-31T05:58:32;14.23;;;10.40;;
50968;SDS011;36982;51.474;7.228;2023-08-31T06:00:59;12.87;;;9.67;;
50968;SDS011;36982;51.474;7.228;2023-08-31T06:03:28;13.83;;;10.57;;
50968;SDS011;36982;51.474;7.228;2023-08-31T06:05:55;12.23;;;9.47;;
50968;SDS011;36982;51.474;7.228;2023-08-31T06:08:21;14.90;;;10.07;;
50968;SDS011;36982;51.474;7.228;2023-08-31T06:10:48;11.07;;;9.07;;
50968;SDS011;36982;51.474;7.228;2023-08-31T06:13:13;11.30;;;8.47;;
50968;SDS011;36982;51.474;7.228;2023-08-31T06:15:39;8.43;;;7.50;;
50968;SDS011;36982;51.474;7.228;2023-08-31T06:18:05;10.67;;;7.80;;
50968;SDS011;36982;51.474;7.228;2023-08-31T06:20:31;10.00;;;6.87;;
50968;SDS011;36982;51.474;7.228;2023-08-31T06:22:57;7.87;;;6.73;;
50968;SDS011;36982;51.474;7.228;2023-08-31T06:25:24;8.33;;;6.70;;
50968;SDS011;36982;51.474;7.228;2023-08-31T06:27:49;7.50;;;6.20;;
50968;SDS011;36982;51.474;7.228;2023-08-31T06:30:16;7.07;;;6.30;;
50968;SDS011;36982;51.474;7.228;2023-08-31T06:32:43;7.63;;;5.80;;
50968;SDS011;36982;51.474;7.228;2023-08-31T06:35:10;9.67;;;6.00;;
50968;SDS011;36982;51.474;7.228;2023-08-31T06:37:40;8.03;;;6.00;;
50968;SDS011;36982;51.474;7.228;2023-08-31T06:40:06;7.93;;;5.50;;
50968;SDS011;36982;51.474;7.228;2023-08-31T06:42:36;7.13;;;5.30;;
50968;SDS011;36982;51.474;7.228;2023-08-31T06:45:03;8.07;;;5.47;;
50968;SDS011;36982;51.474;7.228;2023-08-31T06:47:30;6.00;;;4.37;;
50968;SDS011;36982;51.474;7.228;2023-08-31T06:49:56;6.53;;;4.20;;
50968;SDS011;36982;51.474;7.228;2023-08-31T06:52:22;6.17;;;4.47;;
50968;SDS011;36982;51.474;7.228;2023-08-31T06:54:49;6.50;;;4.60;;
50968;SDS011;36982;51.474;7.228;2023-08-31T06:57:14;5.47;;;4.07;;
50968;SDS011;36982;51.474;7.228;2023-08-31T06:59:40;5.20;;;4.10;;
50968;SDS011;36982;51.474;7.228;2023-08-31T07:02:05;4.97;;;3.93;;
50968;SDS011;36982;51.474;7.228;2023-08-31T07:04:31;4.87;;;3.73;;
50968;SDS011;36982;51.474;7.228;2023-08-31T07:06:56;6.53;;;3.93;;
50968;SDS011;36982;51.474;7.228;2023-08-31T07:09:22;6.37;;;3.37;;
50968;SDS011;36982;51.474;7.228;2023-08-31T07:11:47;8.30;;;3.93;;
50968;SDS011;36982;51.474;7.228;2023-08-31T07:14:13;4.27;;;3.40;;
50968;SDS011;36982;51.474;7.228;2023-08-31T07:16:39;4.93;;;3.30;;
50968;SDS011;36982;51.474;7.228;2023-08-31T07:19:04;5.87;;;2.90;;
50968;SDS011;36982;51.474;7.228;2023-08-31T07:21:30;5.80;;;3.23;;
50968;SDS011;36982;51.474;7.228;2023-08-31T07:23:56;5.20;;;2.80;;
50968;SDS011;36982;51.474;7.228;2023-08-31T07:26:22;4.57;;;3.10;;
50968;SDS011;36982;51.474;7.228;2023-08-31T07:28:48;2.93;;;2.57;;
50968;SDS011;36982;51.474;7.228;2023-08-31T07:31:13;5.50;;;3.30;;
50968;SDS011;36982;51.474;7.228;2023-08-31T07:33:40;5.80;;;2.90;;
50968;SDS011;36982;51.474;7.228;2023-08-31T07:36:06;5.33;;;3.13;;
50968;SDS011;36982;51.474;7.228;2023-08-31T07:38:32;4.70;;;2.80;;
50968;SDS011;36982;51.474;7.228;2023-08-31T07:40:58;6.00;;;2.67;;
50968;SDS011;36982;51.474;7.228;2023-08-31T07:43:27;3.90;;;2.60;;
50968;SDS011;36982;51.474;7.228;2023-08-31T07:45:53;4.80;;;2.67;;
50968;SDS011;36982;51.474;7.228;2023-08-31T07:48:19;4.67;;;2.60;;
50968;SDS011;36982;51.474;7.228;2023-08-31T07:50:44;4.47;;;2.30;;
50968;SDS011;36982;51.474;7.228;2023-08-31T07:53:11;3.97;;;2.13;;
50968;SDS011;36982;51.474;7.228;2023-08-31T07:55:37;4.67;;;2.90;;
50968;SDS011;36982;51.474;7.228;2023-08-31T07:58:04;3.43;;;2.40;;
50968;SDS011;36982;51.474;7.228;2023-08-31T08:00:29;3.20;;;2.13;;
50968;SDS011;36982;51.474;7.228;2023-08-31T08:02:55;5.90;;;2.20;;
50968;SDS011;36982;51.474;7.228;2023-08-31T08:05:20;4.10;;;2.03;;
50968;SDS011;36982;51.474;7.228;2023-08-31T08:07:46;3.00;;;2.10;;
50968;SDS011;36982;51.474;7.228;2023-08-31T08:10:12;4.10;;;1.93;;
50968;SDS011;36982;51.474;7.228;2023-08-31T08:12:38;3.40;;;1.70;;
50968;SDS011;36982;51.474;7.228;2023-08-31T08:15:05;3.77;;;2.03;;
50968;SDS011;36982;51.474;7.228;2023-08-31T08:20:03;2.70;;;1.70;;
50968;SDS011;36982;51.474;7.228;2023-08-31T08:22:32;2.57;;;1.60;;
50968;SDS011;36982;51.474;7.228;2023-08-31T08:24:58;5.67;;;1.60;;
50968;SDS011;36982;51.474;7.228;2023-08-31T08:27:23;4.97;;;1.60;;
50968;SDS011;36982;51.474;7.228;2023-08-31T08:29:49;5.97;;;2.20;;
50968;SDS011;36982;51.474;7.228;2023-08-31T08:32:15;3.67;;;1.80;;
50968;SDS011;36982;51.474;7.228;2023-08-31T08:34:40;2.50;;;1.80;;
50968;SDS011;36982;51.474;7.228;2023-08-31T08:37:06;3.60;;;2.20;;
50968;SDS011;36982;51.474;7.228;2023-08-31T08:39:31;4.40;;;1.90;;
50968;SDS011;36982;51.474;7.228;2023-08-31T08:41:57;2.47;;;1.80;;
50968;SDS011;36982;51.474;7.228;2023-08-31T08:44:26;3.97;;;1.80;;
50968;SDS011;36982;51.474;7.228;2023-08-31T08:47:00;5.43;;;2.60;;
50968;SDS011;36982;51.474;7.228;2023-08-31T08:49:26;5.80;;;2.17;;
50968;SDS011;36982;51.474;7.228;2023-08-31T08:51:55;3.10;;;2.40;;
50968;SDS011;36982;51.474;7.228;2023-08-31T08:54:22;4.07;;;1.93;;
50968;SDS011;36982;51.474;7.228;2023-08-31T08:56:47;6.90;;;3.00;;
50968;SDS011;36982;51.474;7.228;2023-08-31T08:59:13;4.77;;;2.50;;
50968;SDS011;36982;51.474;7.228;2023-08-31T09:01:39;5.10;;;2.40;;
50968;SDS011;36982;51.474;7.228;2023-08-31T09:04:05;4.90;;;2.10;;
50968;SDS011;36982;51.474;7.228;2023-08-31T09:06:31;4.43;;;2.17;;
50968;SDS011;36982;51.474;7.228;2023-08-31T09:08:58;3.47;;;2.35;;
50968;SDS011;36982;51.474;7.228;2023-08-31T09:11:24;3.47;;;2.20;;
50968;SDS011;36982;51.474;7.228;2023-08-31T09:13:51;4.50;;;2.60;;
50968;SDS011;36982;51.474;7.228;2023-08-31T09:16:23;5.10;;;2.50;;
50968;SDS011;36982;51.474;7.228;2023-08-31T09:18:49;5.80;;;3.10;;
50968;SDS011;36982;51.474;7.228;2023-08-31T09:21:14;5.77;;;2.60;;
50968;SDS011;36982;51.474;7.228;2023-08-31T09:23:40;3.00;;;2.00;;
50968;SDS011;36982;51.474;7.228;2023-08-31T09:26:06;6.30;;;3.13;;
50968;SDS011;36982;51.474;7.228;2023-08-31T09:28:32;3.65;;;2.25;;
50968;SDS011;36982;51.474;7.228;2023-08-31T09:31:04;4.43;;;2.45;;
50968;SDS011;36982;51.474;7.228;2023-08-31T09:33:31;6.60;;;2.60;;
50968;SDS011;36982;51.474;7.228;2023-08-31T09:35:57;5.10;;;2.33;;
50968;SDS011;36982;51.474;7.228;2023-08-31T09:38:29;4.10;;;2.30;;
50968;SDS011;36982;51.474;7.228;2023-08-31T09:41:04;6.60;;;2.80;;
50968;SDS011;36982;51.474;7.228;2023-08-31T09:43:33;4.72;;;2.60;;
50968;SDS011;36982;51.474;7.228;2023-08-31T09:45:59;3.47;;;2.15;;
50968;SDS011;36982;51.474;7.228;2023-08-31T09:48:27;5.53;;;2.40;;
50968;SDS011;36982;51.474;7.228;2023-08-31T09:50:54;4.05;;;2.42;;
50968;SDS011;36982;51.474;7.228;2023-08-31T09:53:20;4.90;;;2.92;;
50968;SDS011;36982;51.474;7.228;2023-08-31T09:55:48;3.20;;;1.90;;
50968;SDS011;36982;51.474;7.228;2023-08-31T09:58:20;4.68;;;2.33;;
50968;SDS011;36982;51.474;7.228;2023-08-31T10:00:46;6.30;;;2.33;;
50968;SDS011;36982;51.474;7.228;2023-08-31T10:03:17;4.95;;;1.95;;
50968;SDS011;36982;51.474;7.228;2023-08-31T10:05:45;4.60;;;2.67;;
50968;SDS011;36982;51.474;7.228;2023-08-31T10:08:14;4.43;;;1.90;;
50968;SDS011;36982;51.474;7.228;2023-08-31T10:10:41;4.70;;;1.73;;
50968;SDS011;36982;51.474;7.228;2023-08-31T10:13:08;4.87;;;1.60;;
50968;SDS011;36982;51.474;7.228;2023-08-31T10:15:34;2.50;;;1.83;;
50968;SDS011;36982;51.474;7.228;2023-08-31T10:18:01;2.53;;;2.03;;
50968;SDS011;36982;51.474;7.228;2023-08-31T10:20:28;3.60;;;1.65;;
50968;SDS011;36982;51.474;7.228;2023-08-31T10:23:03;5.20;;;1.70;;
50968;SDS011;36982;51.474;7.228;2023-08-31T10:28:17;3.50;;;1.95;;
50968;SDS011;36982;51.474;7.228;2023-08-31T10:36:00;3.28;;;1.55;;
50968;SDS011;36982;51.474;7.228;2023-08-31T10:38:26;5.07;;;2.22;;
50968;SDS011;36982;51.474;7.228;2023-08-31T10:41:03;4.12;;;2.12;;
50968;SDS011;36982;51.474;7.228;2023-08-31T10:46:35;3.58;;;1.58;;
50968;SDS011;36982;51.474;7.228;2023-08-31T10:51:36;2.55;;;1.50;;
50968;SDS011;36982;51.474;7.228;2023-08-31T10:54:13;2.67;;;1.37;;
50968;SDS011;36982;51.474;7.228;2023-08-31T10:59:40;3.58;;;1.50;;
50968;SDS011;36982;51.474;7.228;2023-08-31T11:02:29;3.70;;;1.40;;
50968;SDS011;36982;51.474;7.228;2023-08-31T11:05:10;2.10;;;1.48;;
50968;SDS011;36982;51.474;7.228;2023-08-31T11:07:40;5.47;;;1.85;;
50968;SDS011;36982;51.474;7.228;2023-08-31T11:12:37;1.77;;;1.33;;
50968;SDS011;36982;51.474;7.228;2023-08-31T11:15:04;2.65;;;1.58;;
50968;SDS011;36982;51.474;7.228;2023-08-31T11:17:30;4.35;;;1.60;;
50968;SDS011;36982;51.474;7.228;2023-08-31T11:19:59;3.58;;;1.40;;
50968;SDS011;36982;51.474;7.228;2023-08-31T11:22:26;2.50;;;1.70;;
50968;SDS011;36982;51.474;7.228;2023-08-31T11:24:52;3.90;;;1.77;;
50968;SDS011;36982;51.474;7.228;2023-08-31T11:27:21;2.45;;;1.40;;
50968;SDS011;36982;51.474;7.228;2023-08-31T11:29:46;3.87;;;1.95;;
50968;SDS011;36982;51.474;7.228;2023-08-31T11:32:13;4.22;;;1.50;;
50968;SDS011;36982;51.474;7.228;2023-08-31T11:34:43;6.53;;;1.60;;
50968;SDS011;36982;51.474;7.228;2023-08-31T11:37:09;3.22;;;1.42;;
50968;SDS011;36982;51.474;7.228;2023-08-31T11:39:51;2.75;;;1.55;;
50968;SDS011;36982;51.474;7.228;2023-08-31T11:42:19;3.62;;;1.40;;
50968;SDS011;36982;51.474;7.228;2023-08-31T11:44:49;3.67;;;1.58;;
50968;SDS011;36982;51.474;7.228;2023-08-31T11:47:17;3.72;;;1.50;;
50968;SDS011;36982;51.474;7.228;2023-08-31T11:49:43;4.12;;;1.85;;
50968;SDS011;36982;51.474;7.228;2023-08-31T11:52:10;4.30;;;1.70;;
50968;SDS011;36982;51.474;7.228;2023-08-31T11:54:41;4.60;;;2.10;;
50968;SDS011;36982;51.474;7.228;2023-08-31T11:57:07;4.32;;;1.92;;
50968;SDS011;36982;51.474;7.228;2023-08-31T11:59:34;3.08;;;1.80;;
50968;SDS011;36982;51.474;7.228;2023-08-31T12:02:01;4.30;;;2.30;;
50968;SDS011;36982;51.474;7.228;2023-08-31T12:04:30;3.00;;;1.40;;
50968;SDS011;36982;51.474;7.228;2023-08-31T12:07:00;3.97;;;1.90;;
50968;SDS011;36982;51.474;7.228;2023-08-31T12:09:30;3.12;;;1.40;;
50968;SDS011;36982;51.474;7.228;2023-08-31T12:11:56;2.35;;;1.60;;
50968;SDS011;36982;51.474;7.228;2023-08-31T12:14:23;4.60;;;1.92;;
50968;SDS011;36982;51.474;7.228;2023-08-31T12:16:50;3.97;;;1.65;;
50968;SDS011;36982;51.474;7.228;2023-08-31T12:19:16;4.37;;;1.90;;
50968;SDS011;36982;51.474;7.228;2023-08-31T12:21:43;3.45;;;1.62;;
50968;SDS011;36982;51.474;7.228;2023-08-31T12:24:11;5.37;;;2.05;;
50968;SDS011;36982;51.474;7.228;2023-08-31T12:26:37;3.72;;;2.00;;
50968;SDS011;36982;51.474;7.228;2023-08-31T12:29:03;3.75;;;1.50;;
50968;SDS011;36982;51.474;7.228;2023-08-31T12:31:31;3.33;;;1.37;;
50968;SDS011;36982;51.474;7.228;2023-08-31T12:33:57;4.43;;;1.67;;
50968;SDS011;36982;51.474;7.228;2023-08-31T12:36:24;5.72;;;3.25;;
50968;SDS011;36982;51.474;7.228;2023-08-31T12:38:50;4.85;;;1.77;;
50968;SDS011;36982;51.474;7.228;2023-08-31T12:41:16;3.75;;;2.28;;
50968;SDS011;36982;51.474;7.228;2023-08-31T12:43:43;5.03;;;3.37;;
50968;SDS011;36982;51.474;7.228;2023-08-31T12:46:08;2.60;;;1.48;;
50968;SDS011;36982;51.474;7.228;2023-08-31T12:48:34;3.70;;;1.30;;
50968;SDS011;36982;51.474;7.228;2023-08-31T12:51:00;3.25;;;1.70;;
50968;SDS011;36982;51.474;7.228;2023-08-31T12:53:26;4.32;;;1.62;;
50968;SDS011;36982;51.474;7.228;2023-08-31T12:55:52;4.85;;;2.15;;
50968;SDS011;36982;51.474;7.228;2023-08-31T12:58:18;2.75;;;1.65;;
50968;SDS011;36982;51.474;7.228;2023-08-31T13:00:45;3.78;;;1.27;;
50968;SDS011;36982;51.474;7.228;2023-08-31T13:03:12;5.07;;;2.47;;
50968;SDS011;36982;51.474;7.228;2023-08-31T13:05:38;3.90;;;2.33;;
50968;SDS011;36982;51.474;7.228;2023-08-31T13:08:05;3.15;;;1.65;;
50968;SDS011;36982;51.474;7.228;2023-08-31T13:10:32;3.90;;;1.52;;
50968;SDS011;36982;51.474;7.228;2023-08-31T13:12:58;4.68;;;1.77;;
50968;SDS011;36982;51.474;7.228;2023-08-31T13:15:23;4.15;;;1.83;;
50968;SDS011;36982;51.474;7.228;2023-08-31T13:17:49;2.92;;;1.60;;
50968;SDS011;36982;51.474;7.228;2023-08-31T13:20:14;5.90;;;3.05;;
50968;SDS011;36982;51.474;7.228;2023-08-31T13:22:40;5.93;;;2.20;;
50968;SDS011;36982;51.474;7.228;2023-08-31T13:25:06;2.67;;;1.75;;
50968;SDS011;36982;51.474;7.228;2023-08-31T13:27:31;5.30;;;2.28;;
50968;SDS011;36982;51.474;7.228;2023-08-31T13:30:00;4.97;;;1.90;;
50968;SDS011;36982;51.474;7.228;2023-08-31T13:32:26;5.68;;;2.05;;
50968;SDS011;36982;51.474;7.228;2023-08-31T13:34:51;2.92;;;1.75;;
50968;SDS011;36982;51.474;7.228;2023-08-31T13:37:18;3.53;;;1.90;;
50968;SDS011;36982;51.474;7.228;2023-08-31T13:39:44;2.95;;;1.80;;
50968;SDS011;36982;51.474;7.228;2023-08-31T13:42:10;3.72;;;1.90;;
50968;SDS011;36982;51.474;7.228;2023-08-31T13:44:35;6.12;;;3.55;;
50968;SDS011;36982;51.474;7.228;2023-08-31T13:47:01;5.05;;;2.33;;
50968;SDS011;36982;51.474;7.228;2023-08-31T13:49:28;4.47;;;1.90;;
50968;SDS011;36982;51.474;7.228;2023-08-31T13:51:55;4.05;;;1.80;;
50968;SDS011;36982;51.474;7.228;2023-08-31T13:54:21;4.87;;;1.80;;
50968;SDS011;36982;51.474;7.228;2023-08-31T13:56:46;3.05;;;1.40;;
50968;SDS011;36982;51.474;7.228;2023-08-31T13:59:15;3.83;;;2.25;;
50968;SDS011;36982;51.474;7.228;2023-08-31T14:01:40;3.45;;;2.72;;
50968;SDS011;36982;51.474;7.228;2023-08-31T14:04:22;4.12;;;1.55;;
50968;SDS011;36982;51.474;7.228;2023-08-31T14:06:48;4.00;;;1.70;;
50968;SDS011;36982;51.474;7.228;2023-08-31T14:09:14;3.12;;;1.87;;
50968;SDS011;36982;51.474;7.228;2023-08-31T14:11:40;6.25;;;2.08;;
50968;SDS011;36982;51.474;7.228;2023-08-31T14:14:06;3.50;;;1.60;;
50968;SDS011;36982;51.474;7.228;2023-08-31T14:16:35;4.30;;;2.42;;
50968;SDS011;36982;51.474;7.228;2023-08-31T14:19:02;4.00;;;2.35;;
50968;SDS011;36982;51.474;7.228;2023-08-31T14:21:31;3.37;;;1.60;;
50968;SDS011;36982;51.474;7.228;2023-08-31T14:23:56;2.67;;;1.70;;
50968;SDS011;36982;51.474;7.228;2023-08-31T14:26:22;6.32;;;3.42;;
50968;SDS011;36982;51.474;7.228;2023-08-31T14:28:49;5.72;;;2.28;;
50968;SDS011;36982;51.474;7.228;2023-08-31T14:31:18;4.75;;;2.45;;
50968;SDS011;36982;51.474;7.228;2023-08-31T14:33:44;3.40;;;1.67;;
50968;SDS011;36982;51.474;7.228;2023-08-31T14:36:10;3.67;;;1.55;;
50968;SDS011;36982;51.474;7.228;2023-08-31T14:38:38;3.35;;;1.70;;
50968;SDS011;36982;51.474;7.228;2023-08-31T14:41:04;5.00;;;2.70;;
50968;SDS011;36982;51.474;7.228;2023-08-31T14:43:31;5.60;;;3.20;;
50968;SDS011;36982;51.474;7.228;2023-08-31T14:46:00;8.30;;;3.85;;
50968;SDS011;36982;51.474;7.228;2023-08-31T14:48:26;8.77;;;4.72;;
50968;SDS011;36982;51.474;7.228;2023-08-31T14:50:52;8.10;;;4.17;;
50968;SDS011;36982;51.474;7.228;2023-08-31T14:53:18;7.73;;;4.80;;
50968;SDS011;36982;51.474;7.228;2023-08-31T14:55:56;7.37;;;4.90;;
50968;SDS011;36982;51.474;7.228;2023-08-31T14:58:22;11.67;;;5.10;;
50968;SDS011;36982;51.474;7.228;2023-08-31T15:00:47;8.73;;;5.50;;
50968;SDS011;36982;51.474;7.228;2023-08-31T15:03:13;8.23;;;5.53;;
50968;SDS011;36982;51.474;7.228;2023-08-31T15:05:39;7.10;;;5.63;;
50968;SDS011;36982;51.474;7.228;2023-08-31T15:08:07;10.37;;;6.47;;
50968;SDS011;36982;51.474;7.228;2023-08-31T15:10:33;8.27;;;5.83;;
50968;SDS011;36982;51.474;7.228;2023-08-31T15:12:59;9.30;;;6.37;;